createdAt,value
2023-05-02T00:00:49.657Z,92.15
2023-05-02T00:01:49.668Z,92.87
2023-05-02T00:02:49.579Z,92.77
2023-05-02T00:03:49.713Z,93.07
2023-05-02T00:04:49.591Z,93.69
2023-05-02T00:05:49.544Z,94.10
2023-05-02T00:06:49.690Z,93.89
2023-05-02T00:07:49.535Z,94.40
2023-05-02T00:08:49.647Z,93.99
2023-05-02T00:09:49.500Z,93.79
2023-05-02T00:10:49.553Z,93.59
2023-05-02T00:11:49.566Z,93.28
2023-05-02T00:12:49.460Z,93.28
2023-05-02T00:13:49.475Z,93.07
2023-05-02T00:14:49.617Z,92.97
2023-05-02T00:15:49.445Z,93.59
2023-05-02T00:16:49.515Z,93.48
2023-05-02T00:17:49.555Z,93.79
2023-05-02T00:18:49.259Z,94.30
2023-05-02T00:19:49.442Z,93.89
2023-05-02T00:20:49.444Z,93.79
2023-05-02T00:21:49.469Z,93.28
2023-05-02T00:22:49.360Z,92.97
2023-05-02T00:23:49.350Z,93.28
2023-05-02T00:24:49.348Z,93.18
2023-05-02T00:25:49.326Z,93.28
2023-05-02T00:26:49.321Z,92.66
2023-05-02T00:27:49.414Z,92.66
2023-05-02T00:28:49.319Z,93.69
2023-05-02T00:29:49.317Z,93.59
2023-05-02T00:30:49.433Z,93.38
2023-05-02T00:31:49.271Z,93.28
2023-05-02T00:32:49.325Z,93.48
2023-05-02T00:33:49.284Z,93.79
2023-05-02T00:34:49.127Z,93.69
2023-05-02T00:35:49.281Z,93.38
2023-05-02T00:36:49.266Z,92.15
2023-05-02T00:37:49.111Z,92.25
2023-05-02T00:38:49.249Z,92.46
2023-05-02T00:39:49.153Z,92.05
2023-05-02T00:40:49.128Z,91.13
2023-05-02T00:41:49.122Z,91.03
2023-05-02T00:42:49.253Z,91.33
2023-05-02T00:43:49.150Z,90.82
2023-05-02T00:44:49.133Z,90.62
2023-05-02T00:45:49.133Z,90.72
2023-05-02T00:46:49.265Z,91.23
2023-05-02T00:47:49.276Z,90.72
2023-05-02T00:48:49.158Z,91.27
2023-05-02T00:49:49.131Z,91.74
2023-05-02T00:50:49.106Z,91.99
2023-05-02T00:51:49.092Z,92.15
2023-05-02T00:52:48.996Z,92.10
2023-05-02T00:53:48.894Z,91.78
2023-05-02T00:54:49.123Z,91.89
2023-05-02T00:55:49.019Z,91.89
2023-05-02T00:56:48.998Z,91.85
2023-05-02T00:57:48.996Z,91.48
2023-05-02T00:58:48.881Z,90.56
2023-05-02T00:59:48.993Z,90.56
2023-05-02T01:00:49.032Z,90.52
2023-05-02T01:01:49.018Z,90.66
2023-05-02T01:02:49.164Z,91.07
2023-05-02T01:03:49.082Z,90.41
2023-05-02T01:04:49.057Z,90.31
2023-05-02T01:05:48.816Z,89.84
2023-05-02T01:06:48.980Z,90.25
2023-05-02T01:07:48.933Z,89.84
2023-05-02T01:08:48.935Z,90.11
2023-05-02T01:09:48.932Z,90.52
2023-05-02T01:10:48.967Z,90.72
2023-05-02T01:11:48.896Z,90.62
2023-05-02T01:12:48.887Z,90.62
2023-05-02T01:13:48.893Z,90.82
2023-05-02T01:14:48.843Z,90.56
2023-05-02T01:15:49.003Z,90.11
2023-05-02T01:16:48.865Z,90.41
2023-05-02T01:17:48.824Z,91.03
2023-05-02T01:18:48.792Z,91.13
2023-05-02T01:19:48.791Z,91.03
2023-05-02T01:20:48.868Z,91.23
2023-05-02T01:21:48.792Z,91.85
2023-05-02T01:22:48.772Z,91.54
2023-05-02T01:23:48.691Z,92.05
2023-05-02T01:24:48.773Z,92.46
2023-05-02T01:25:48.767Z,92.50
2023-05-02T01:26:48.756Z,92.60
2023-05-02T01:27:48.750Z,92.81
2023-05-02T01:28:48.670Z,92.81
2023-05-02T01:29:48.663Z,93.52
2023-05-02T01:30:48.631Z,93.84
2023-05-02T01:31:48.839Z,93.84
2023-05-02T01:32:48.735Z,94.14
2023-05-02T01:33:48.664Z,93.93
2023-05-02T01:34:48.642Z,94.04
2023-05-02T01:35:48.650Z,94.34
2023-05-02T01:36:48.664Z,94.14
2023-05-02T01:37:48.584Z,93.98
2023-05-02T01:38:48.587Z,93.63
2023-05-02T01:39:48.596Z,93.37
2023-05-02T01:40:48.594Z,93.32
2023-05-02T01:41:48.679Z,93.43
2023-05-02T01:42:48.630Z,93.01
2023-05-02T01:43:48.613Z,92.91
2023-05-02T01:44:48.604Z,93.52
2023-05-02T01:45:48.586Z,93.52
2023-05-02T01:46:48.665Z,93.93
2023-05-02T01:47:48.848Z,94.24
2023-05-02T01:48:48.459Z,94.45
2023-05-02T01:49:48.411Z,94.55
2023-05-02T01:50:48.484Z,94.24
2023-05-02T01:51:48.551Z,94.85
2023-05-02T01:52:48.384Z,95.06
2023-05-02T01:53:48.424Z,94.65
2023-05-02T01:54:48.425Z,94.96
2023-05-02T01:55:48.419Z,95.06
2023-05-02T01:56:48.444Z,94.65
2023-05-02T01:57:48.528Z,94.65
2023-05-02T01:58:48.406Z,94.65
2023-05-02T01:59:48.382Z,94.45
2023-05-02T02:00:48.462Z,94.34
2023-05-02T02:01:48.405Z,94.34
2023-05-02T02:02:48.423Z,94.24
2023-05-02T02:03:48.390Z,94.59
2023-05-02T02:04:48.549Z,95.06
2023-05-02T02:05:48.310Z,95.17
2023-05-02T02:06:48.546Z,94.96
2023-05-02T02:07:48.215Z,95.06
2023-05-02T02:08:48.105Z,95.06
2023-05-02T02:09:48.267Z,94.85
2023-05-02T02:10:48.272Z,94.65
2023-05-02T02:11:48.275Z,94.85
2023-05-02T02:12:48.358Z,95.17
2023-05-02T02:13:48.202Z,94.96
2023-05-02T02:14:48.279Z,94.96
2023-05-02T02:15:48.251Z,95.06
2023-05-02T02:16:48.254Z,95.06
2023-05-02T02:17:48.297Z,94.96
2023-05-02T02:18:48.206Z,94.55
2023-05-02T02:19:48.204Z,94.24
2023-05-02T02:20:48.283Z,94.96
2023-05-02T02:21:48.148Z,94.96
2023-05-02T02:22:48.053Z,95.26
2023-05-02T02:23:48.191Z,95.26
2023-05-02T02:24:48.070Z,95.26
2023-05-02T02:25:48.178Z,95.47
2023-05-02T02:26:48.079Z,94.96
2023-05-02T02:27:48.039Z,95.06
2023-05-02T02:28:48.054Z,95.47
2023-05-02T02:29:48.191Z,95.37
2023-05-02T02:30:48.104Z,95.37
2023-05-02T02:31:48.067Z,95.47
2023-05-02T02:32:48.131Z,95.57
2023-05-02T02:33:48.070Z,95.67
2023-05-02T02:34:48.014Z,95.47
2023-05-02T02:35:48.118Z,95.47
2023-05-02T02:36:48.075Z,95.57
2023-05-02T02:37:47.931Z,95.37
2023-05-02T02:38:48.028Z,95.37
2023-05-02T02:39:48.051Z,95.47
2023-05-02T02:40:47.988Z,95.67
2023-05-02T02:41:48.075Z,95.78
2023-05-02T02:42:48.030Z,95.88
2023-05-02T02:43:47.920Z,95.67
2023-05-02T02:44:47.935Z,95.78
2023-05-02T02:45:47.951Z,96.08
2023-05-02T02:46:48.206Z,95.98
2023-05-02T02:47:47.972Z,96.08
2023-05-02T02:48:48.004Z,96.29
2023-05-02T02:49:47.844Z,96.29
2023-05-02T02:50:47.757Z,96.19
2023-05-02T02:51:47.741Z,96.08
2023-05-02T02:52:47.825Z,96.08
2023-05-02T02:53:47.730Z,96.19
2023-05-02T02:54:47.737Z,96.08
2023-05-02T02:55:47.668Z,96.19
2023-05-02T02:56:47.785Z,96.29
2023-05-02T02:57:47.777Z,95.88
2023-05-02T02:58:47.750Z,96.08
2023-05-02T02:59:47.883Z,96.29
2023-05-02T03:00:47.837Z,96.29
2023-05-02T03:01:47.660Z,96.29
2023-05-02T03:02:47.834Z,96.29
2023-05-02T03:03:47.793Z,96.19
2023-05-02T03:04:47.608Z,96.39
2023-05-02T03:05:47.691Z,96.19
2023-05-02T03:06:47.679Z,96.39
2023-05-02T03:07:47.700Z,96.49
2023-05-02T03:08:47.636Z,96.49
2023-05-02T03:09:47.618Z,96.49
2023-05-02T03:10:47.518Z,96.29
2023-05-02T03:11:47.493Z,96.49
2023-05-02T03:12:47.693Z,96.39
2023-05-02T03:13:47.704Z,96.29
2023-05-02T03:14:47.706Z,96.19
2023-05-02T03:15:47.779Z,96.39
2023-05-02T03:16:47.652Z,96.49
2023-05-02T03:17:47.688Z,96.59
2023-05-02T03:18:47.537Z,96.59
2023-05-02T03:19:47.704Z,96.29
2023-05-02T03:20:47.680Z,96.19
2023-05-02T03:21:47.608Z,96.08
2023-05-02T03:22:47.431Z,96.29
2023-05-02T03:23:47.595Z,96.08
2023-05-02T03:24:47.526Z,96.08
2023-05-02T03:25:47.584Z,96.08
2023-05-02T03:26:47.662Z,96.19
2023-05-02T03:27:47.567Z,95.98
2023-05-02T03:28:47.442Z,95.78
2023-05-02T03:29:47.351Z,95.57
2023-05-02T03:30:47.291Z,95.37
2023-05-02T03:31:47.476Z,95.47
2023-05-02T03:32:47.471Z,95.26
2023-05-02T03:33:47.362Z,95.06
2023-05-02T03:34:47.367Z,94.45
2023-05-02T03:35:47.360Z,94.34
2023-05-02T03:36:47.376Z,94.65
2023-05-02T03:37:47.249Z,94.75
2023-05-02T03:38:47.295Z,94.55
2023-05-02T03:39:47.293Z,94.34
2023-05-02T03:40:47.301Z,94.24
2023-05-02T03:41:47.301Z,94.34
2023-05-02T03:42:47.389Z,94.24
2023-05-02T03:43:47.314Z,94.65
2023-05-02T03:44:47.234Z,94.65
2023-05-02T03:45:48.808Z,94.85
2023-05-02T03:46:47.330Z,94.75
2023-05-02T03:47:47.242Z,94.75
2023-05-02T03:48:47.085Z,94.55
2023-05-02T03:49:47.073Z,94.96
2023-05-02T03:50:47.037Z,94.24
2023-05-02T03:51:47.167Z,94.75
2023-05-02T03:52:47.112Z,94.55
2023-05-02T03:53:47.036Z,95.06
2023-05-02T03:54:47.069Z,95.17
2023-05-02T03:55:47.084Z,94.96
2023-05-02T03:56:47.147Z,94.96
2023-05-02T03:57:47.112Z,95.26
2023-05-02T03:58:47.199Z,94.85
2023-05-02T03:59:47.211Z,95.37
2023-05-02T04:00:46.983Z,95.57
2023-05-02T04:01:46.969Z,95.57
2023-05-02T04:02:47.282Z,95.57
2023-05-02T04:03:47.059Z,95.78
2023-05-02T04:04:47.568Z,95.98
2023-05-02T04:05:47.178Z,96.29
2023-05-02T04:06:47.232Z,96.44
2023-05-02T04:07:46.909Z,96.54
2023-05-02T04:08:47.030Z,96.54
2023-05-02T04:09:47.070Z,96.29
2023-05-02T04:10:47.099Z,96.29
2023-05-02T04:11:46.962Z,96.59
2023-05-02T04:12:47.069Z,96.54
2023-05-02T04:13:47.031Z,96.19
2023-05-02T04:14:47.033Z,96.08
2023-05-02T04:15:46.948Z,96.08
2023-05-02T04:16:47.060Z,96.13
2023-05-02T04:17:46.966Z,96.08
2023-05-02T04:18:46.963Z,96.13
2023-05-02T04:19:46.949Z,96.08
2023-05-02T04:20:46.933Z,96.19
2023-05-02T04:21:47.007Z,96.33
2023-05-02T04:22:46.776Z,96.39
2023-05-02T04:23:46.863Z,96.29
2023-05-02T04:24:46.795Z,96.33
2023-05-02T04:25:46.821Z,96.08
2023-05-02T04:26:46.908Z,96.08
2023-05-02T04:27:46.859Z,96.08
2023-05-02T04:28:46.877Z,96.39
2023-05-02T04:29:46.826Z,96.08
2023-05-02T04:30:46.905Z,96.49
2023-05-02T04:31:46.836Z,96.13
2023-05-02T04:32:46.776Z,96.19
2023-05-02T04:33:46.834Z,96.19
2023-05-02T04:34:46.771Z,96.08
2023-05-02T04:35:46.795Z,95.88
2023-05-02T04:36:46.820Z,95.72
2023-05-02T04:37:46.624Z,95.78
2023-05-02T04:38:46.712Z,95.67
2023-05-02T04:39:46.864Z,95.51
2023-05-02T04:40:46.701Z,95.51
2023-05-02T04:41:46.546Z,95.21
2023-05-02T04:42:46.565Z,94.90
2023-05-02T04:43:46.899Z,95.10
2023-05-02T04:44:46.490Z,95.21
2023-05-02T04:45:46.725Z,95.21
2023-05-02T04:46:46.618Z,94.96
2023-05-02T04:47:46.636Z,95.21
2023-05-02T04:48:46.632Z,94.96
2023-05-02T04:49:46.499Z,95.41
2023-05-02T04:50:46.499Z,95.51
2023-05-02T04:51:46.504Z,95.41
2023-05-02T04:52:46.472Z,95.31
2023-05-02T04:53:46.651Z,95.37
2023-05-02T04:54:46.539Z,95.47
2023-05-02T04:55:46.475Z,95.67
2023-05-02T04:56:46.581Z,95.78
2023-05-02T04:57:46.521Z,95.72
2023-05-02T04:58:46.594Z,95.82
2023-05-02T04:59:46.501Z,95.92
2023-05-02T05:00:46.528Z,95.92
2023-05-02T05:01:46.558Z,95.88
2023-05-02T05:02:46.637Z,95.78
2023-05-02T05:03:46.569Z,95.67
2023-05-02T05:04:46.513Z,95.37
2023-05-02T05:05:46.423Z,95.67
2023-05-02T05:06:46.503Z,95.98
2023-05-02T05:07:46.338Z,95.88
2023-05-02T05:08:46.419Z,95.88
2023-05-02T05:09:46.448Z,95.98
2023-05-02T05:10:46.483Z,95.98
2023-05-02T05:11:46.231Z,95.57
2023-05-02T05:12:46.433Z,95.72
2023-05-02T05:13:46.397Z,95.57
2023-05-02T05:14:46.408Z,95.26
2023-05-02T05:15:46.477Z,94.96
2023-05-02T05:16:46.433Z,94.96
2023-05-02T05:17:46.441Z,94.75
2023-05-02T05:18:46.341Z,94.85
2023-05-02T05:19:46.418Z,94.85
2023-05-02T05:20:46.335Z,95.22
2023-05-02T05:21:46.407Z,95.26
2023-05-02T05:22:46.125Z,95.06
2023-05-02T05:23:46.433Z,94.85
2023-05-02T05:24:46.279Z,95.47
2023-05-02T05:25:46.368Z,95.78
2023-05-02T05:26:46.280Z,95.67
2023-05-02T05:27:46.224Z,95.98
2023-05-02T05:28:46.322Z,96.19
2023-05-02T05:29:46.250Z,96.39
2023-05-02T05:30:46.188Z,96.39
2023-05-02T05:31:46.276Z,96.59
2023-05-02T05:32:46.236Z,96.49
2023-05-02T05:33:46.147Z,96.39
2023-05-02T05:34:46.278Z,96.59
2023-05-02T05:35:46.218Z,96.80
2023-05-02T05:36:46.233Z,96.59
2023-05-02T05:37:45.943Z,96.70
2023-05-02T05:38:46.241Z,96.59
2023-05-02T05:39:46.114Z,96.39
2023-05-02T05:40:46.132Z,96.45
2023-05-02T05:41:46.140Z,96.49
2023-05-02T05:42:46.063Z,96.55
2023-05-02T05:43:46.128Z,96.66
2023-05-02T05:44:46.064Z,96.80
2023-05-02T05:45:46.215Z,96.86
2023-05-02T05:46:46.072Z,96.66
2023-05-02T05:47:46.081Z,96.80
2023-05-02T05:48:46.047Z,96.70
2023-05-02T05:49:46.161Z,96.70
2023-05-02T05:50:46.043Z,96.66
2023-05-02T05:51:46.029Z,96.66
2023-05-02T05:52:45.942Z,96.91
2023-05-02T05:53:46.011Z,96.75
2023-05-02T05:54:46.032Z,96.45
2023-05-02T05:55:45.931Z,96.14
2023-05-02T05:56:46.021Z,96.08
2023-05-02T05:57:45.950Z,95.84
2023-05-02T05:58:45.964Z,96.14
2023-05-02T05:59:45.960Z,96.14
2023-05-02T06:00:45.956Z,95.84
2023-05-02T06:01:45.940Z,95.63
2023-05-02T06:02:45.991Z,95.53
2023-05-02T06:03:45.776Z,95.43
2023-05-02T06:04:45.954Z,95.63
2023-05-02T06:05:45.955Z,95.73
2023-05-02T06:06:45.912Z,95.84
2023-05-02T06:07:45.742Z,95.73
2023-05-02T06:08:45.880Z,95.32
2023-05-02T06:09:45.676Z,95.73
2023-05-02T06:10:45.835Z,95.84
2023-05-02T06:11:45.660Z,95.78
2023-05-02T06:12:47.173Z,95.67
2023-05-02T06:13:45.660Z,95.37
2023-05-02T06:14:45.628Z,95.78
2023-05-02T06:15:45.859Z,95.92
2023-05-02T06:16:45.800Z,96.23
2023-05-02T06:17:45.835Z,96.33
2023-05-02T06:18:45.760Z,95.92
2023-05-02T06:19:45.742Z,93.51
2023-05-02T06:20:45.731Z,93.20
2023-05-02T06:21:45.702Z,92.69
2023-05-02T06:22:45.585Z,91.24
2023-05-02T06:23:45.747Z,92.06
2023-05-02T06:24:45.835Z,91.75
2023-05-02T06:25:45.721Z,92.21
2023-05-02T06:26:45.809Z,91.69
2023-05-02T06:27:45.665Z,92.10
2023-05-02T06:28:45.536Z,92.93
2023-05-02T06:29:45.541Z,92.97
2023-05-02T06:30:45.541Z,92.25
2023-05-02T06:31:45.471Z,92.55
2023-05-02T06:32:45.574Z,92.91
2023-05-02T06:33:45.462Z,93.83
2023-05-02T06:34:45.516Z,93.63
2023-05-02T06:35:45.568Z,93.93
2023-05-02T06:36:45.538Z,93.73
2023-05-02T06:37:45.482Z,93.87
2023-05-02T06:38:45.532Z,94.18
2023-05-02T06:39:45.501Z,93.87
2023-05-02T06:40:45.520Z,95.10
2023-05-02T06:41:45.513Z,95.62
2023-05-02T06:42:45.338Z,95.62
2023-05-02T06:43:45.513Z,95.31
2023-05-02T06:44:45.490Z,95.01
2023-05-02T06:45:45.569Z,94.18
2023-05-02T06:46:45.527Z,94.29
2023-05-02T06:47:45.567Z,94.59
2023-05-02T06:48:45.409Z,95.01
2023-05-02T06:49:45.401Z,94.80
2023-05-02T06:50:45.395Z,94.59
2023-05-02T06:51:45.466Z,94.59
2023-05-02T06:52:45.360Z,93.98
2023-05-02T06:53:45.276Z,94.49
2023-05-02T06:54:45.475Z,94.90
2023-05-02T06:55:45.343Z,95.01
2023-05-02T06:56:45.454Z,94.76
2023-05-02T06:57:45.336Z,93.93
2023-05-02T06:58:45.306Z,93.42
2023-05-02T06:59:45.286Z,93.57
2023-05-02T07:00:45.318Z,93.46
2023-05-02T07:01:45.337Z,93.98
2023-05-02T07:02:45.417Z,93.57
2023-05-02T07:03:45.367Z,93.26
2023-05-02T07:04:45.353Z,93.36
2023-05-02T07:05:45.245Z,93.87
2023-05-02T07:06:45.300Z,93.87
2023-05-02T07:07:45.324Z,93.57
2023-05-02T07:08:45.203Z,93.16
2023-05-02T07:09:45.189Z,92.85
2023-05-02T07:10:45.263Z,92.74
2023-05-02T07:11:45.165Z,92.64
2023-05-02T07:12:45.109Z,93.01
2023-05-02T07:13:45.139Z,92.80
2023-05-02T07:14:45.052Z,92.19
2023-05-02T07:15:44.992Z,92.40
2023-05-02T07:16:45.105Z,92.40
2023-05-02T07:17:45.086Z,92.55
2023-05-02T07:18:45.032Z,91.94
2023-05-02T07:19:45.598Z,91.74
2023-05-02T07:20:45.096Z,91.28
2023-05-02T07:21:44.995Z,90.40
2023-05-02T07:22:45.070Z,89.89
2023-05-02T07:23:44.993Z,89.89
2023-05-02T07:24:45.026Z,90.81
2023-05-02T07:25:44.967Z,90.67
2023-05-02T07:26:44.947Z,90.26
2023-05-02T07:27:44.937Z,89.99
2023-05-02T07:28:45.018Z,89.37
2023-05-02T07:29:45.095Z,89.17
2023-05-02T07:30:45.066Z,89.27
2023-05-02T07:31:45.077Z,88.90
2023-05-02T07:32:45.005Z,88.80
2023-05-02T07:33:44.932Z,89.01
2023-05-02T07:34:44.917Z,89.21
2023-05-02T07:35:45.009Z,89.99
2023-05-02T07:36:44.791Z,90.09
2023-05-02T07:37:44.764Z,90.24
2023-05-02T07:38:44.931Z,90.14
2023-05-02T07:39:44.924Z,89.93
2023-05-02T07:40:44.726Z,89.99
2023-05-02T07:41:44.899Z,90.24
2023-05-02T07:42:44.716Z,88.70
2023-05-02T07:43:44.826Z,89.31
2023-05-02T07:44:44.993Z,89.52
2023-05-02T07:45:44.872Z,89.42
2023-05-02T07:46:44.736Z,89.52
2023-05-02T07:47:45.004Z,89.01
2023-05-02T07:48:44.906Z,89.11
2023-05-02T07:49:44.806Z,89.31
2023-05-02T07:50:44.768Z,89.31
2023-05-02T07:51:44.919Z,89.42
2023-05-02T07:52:44.655Z,89.62
2023-05-02T07:53:44.763Z,89.76
2023-05-02T07:54:44.727Z,89.93
2023-05-02T07:55:44.749Z,89.66
2023-05-02T07:56:44.792Z,89.66
2023-05-02T07:57:44.763Z,89.97
2023-05-02T07:58:44.698Z,89.76
2023-05-02T07:59:44.663Z,88.84
2023-05-02T08:00:44.698Z,89.11
2023-05-02T08:01:44.681Z,89.62
2023-05-02T08:02:44.592Z,89.21
2023-05-02T08:03:44.702Z,88.80
2023-05-02T08:04:44.649Z,89.62
2023-05-02T08:05:44.708Z,89.83
2023-05-02T08:06:44.681Z,89.52
2023-05-02T08:07:44.476Z,90.14
2023-05-02T08:08:44.648Z,90.34
2023-05-02T08:09:44.681Z,89.52
2023-05-02T08:10:44.734Z,88.59
2023-05-02T08:11:44.541Z,89.21
2023-05-02T08:12:44.506Z,90.44
2023-05-02T08:13:44.423Z,89.62
2023-05-02T08:14:44.400Z,89.83
2023-05-02T08:15:44.549Z,90.24
2023-05-02T08:16:46.171Z,90.65
2023-05-02T08:17:44.564Z,90.44
2023-05-02T08:18:44.601Z,90.24
2023-05-02T08:19:44.472Z,89.78
2023-05-02T08:20:44.528Z,90.09
2023-05-02T08:21:44.382Z,90.30
2023-05-02T08:22:44.370Z,90.30
2023-05-02T08:23:44.532Z,89.89
2023-05-02T08:24:44.452Z,89.78
2023-05-02T08:25:44.426Z,89.69
2023-05-02T08:26:44.403Z,89.64
2023-05-02T08:27:44.370Z,89.43
2023-05-02T08:28:44.423Z,89.33
2023-05-02T08:29:44.423Z,88.21
2023-05-02T08:30:44.253Z,87.08
2023-05-02T08:31:44.476Z,87.79
2023-05-02T08:32:44.413Z,87.08
2023-05-02T08:33:44.335Z,86.77
2023-05-02T08:34:44.417Z,86.66
2023-05-02T08:35:44.265Z,87.28
2023-05-02T08:36:44.283Z,87.79
2023-05-02T08:37:44.252Z,88.21
2023-05-02T08:38:44.200Z,85.74
2023-05-02T08:39:44.174Z,85.38
2023-05-02T08:40:44.201Z,85.03
2023-05-02T08:41:44.229Z,85.13
2023-05-02T08:42:44.210Z,84.66
2023-05-02T08:43:44.113Z,84.41
2023-05-02T08:44:44.095Z,84.31
2023-05-02T08:45:44.044Z,84.55
2023-05-02T08:46:44.126Z,85.54
2023-05-02T08:47:44.062Z,84.82
2023-05-02T08:48:44.015Z,84.52
2023-05-02T08:49:43.989Z,85.13
2023-05-02T08:50:44.037Z,83.80
2023-05-02T08:51:43.948Z,84.52
2023-05-02T08:52:44.114Z,82.87
2023-05-02T08:53:44.114Z,83.18
2023-05-02T08:54:44.095Z,83.42
2023-05-02T08:55:44.067Z,83.32
2023-05-02T08:56:43.974Z,83.42
2023-05-02T08:57:43.950Z,83.22
2023-05-02T08:58:44.166Z,83.53
2023-05-02T08:59:44.027Z,83.69
2023-05-02T09:00:44.128Z,84.96
2023-05-02T09:01:44.117Z,84.34
2023-05-02T09:02:44.120Z,82.60
2023-05-02T09:03:44.014Z,82.40
2023-05-02T09:04:44.053Z,82.91
2023-05-02T09:05:43.897Z,82.81
2023-05-02T09:06:44.025Z,83.12
2023-05-02T09:07:43.946Z,83.42
2023-05-02T09:08:43.964Z,83.28
2023-05-02T09:09:43.885Z,82.87
2023-05-02T09:10:43.977Z,82.77
2023-05-02T09:11:43.906Z,83.14
2023-05-02T09:12:43.933Z,82.83
2023-05-02T09:13:43.949Z,83.04
2023-05-02T09:14:43.860Z,81.81
2023-05-02T09:15:43.883Z,80.47
2023-05-02T09:16:44.059Z,80.44
2023-05-02T09:17:44.198Z,81.57
2023-05-02T09:18:43.894Z,82.28
2023-05-02T09:19:43.987Z,79.93
2023-05-02T09:20:44.006Z,80.85
2023-05-02T09:21:43.812Z,81.15
2023-05-02T09:22:43.783Z,79.96
2023-05-02T09:23:43.767Z,79.96
2023-05-02T09:24:43.692Z,80.17
2023-05-02T09:25:43.673Z,79.86
2023-05-02T09:26:43.760Z,79.55
2023-05-02T09:27:43.754Z,79.96
2023-05-02T09:28:43.638Z,79.45
2023-05-02T09:29:43.816Z,79.86
2023-05-02T09:30:43.632Z,79.86
2023-05-02T09:31:55.512Z,79.66
2023-05-02T09:32:43.610Z,79.04
2023-05-02T09:33:43.714Z,78.74
2023-05-02T09:34:43.772Z,78.83
2023-05-02T09:35:43.724Z,79.24
2023-05-02T09:36:43.789Z,79.55
2023-05-02T09:37:43.779Z,78.42
2023-05-02T09:38:43.507Z,77.84
2023-05-02T09:39:43.535Z,78.63
2023-05-02T09:40:43.527Z,79.08
2023-05-02T09:41:43.770Z,79.14
2023-05-02T09:42:43.676Z,79.28
2023-05-02T09:43:43.595Z,80.10
2023-05-02T09:44:43.514Z,78.67
2023-05-02T09:45:43.613Z,79.59
2023-05-02T09:46:43.630Z,77.91
2023-05-02T09:47:43.666Z,78.02
2023-05-02T09:48:43.496Z,78.53
2023-05-02T09:49:43.578Z,78.70
2023-05-02T09:50:43.475Z,77.67
2023-05-02T09:51:43.426Z,78.66
2023-05-02T09:52:43.409Z,77.73
2023-05-02T09:53:43.456Z,76.61
2023-05-02T09:54:43.394Z,76.10
2023-05-02T09:55:43.566Z,76.20
2023-05-02T09:56:43.420Z,76.40
2023-05-02T09:57:43.546Z,76.72
2023-05-02T09:58:43.448Z,77.53
2023-05-02T09:59:43.326Z,75.62
2023-05-02T10:00:43.365Z,76.61
2023-05-02T10:01:43.518Z,76.44
2023-05-02T10:02:43.492Z,76.34
2023-05-02T10:03:43.345Z,76.65
2023-05-02T10:04:43.350Z,76.03
2023-05-02T10:05:43.241Z,76.65
2023-05-02T10:06:43.356Z,76.54
2023-05-02T10:07:43.461Z,76.95
2023-05-02T10:08:43.389Z,77.43
2023-05-02T10:09:43.351Z,76.72
2023-05-02T10:10:43.306Z,77.02
2023-05-02T10:11:43.304Z,77.64
2023-05-02T10:12:43.467Z,77.50
2023-05-02T10:13:43.341Z,76.06
2023-05-02T10:14:43.313Z,75.24
2023-05-02T10:15:43.363Z,73.91
2023-05-02T10:16:43.169Z,73.71
2023-05-02T10:17:43.493Z,74.43
2023-05-02T10:18:43.288Z,74.60
2023-05-02T10:19:43.287Z,74.39
2023-05-02T10:20:43.275Z,74.66
2023-05-02T10:21:43.237Z,72.82
2023-05-02T10:22:43.229Z,73.98
2023-05-02T10:23:43.203Z,72.86
2023-05-02T10:24:43.181Z,72.14
2023-05-02T10:25:43.241Z,71.39
2023-05-02T10:26:43.139Z,71.77
2023-05-02T10:27:43.277Z,70.75
2023-05-02T10:28:43.175Z,69.82
2023-05-02T10:29:43.148Z,70.54
2023-05-02T10:30:43.105Z,69.01
2023-05-02T10:31:44.793Z,68.60
2023-05-02T10:32:43.139Z,69.01
2023-05-02T10:33:43.107Z,69.21
2023-05-02T10:34:43.036Z,69.01
2023-05-02T10:35:43.015Z,68.80
2023-05-02T10:36:42.970Z,69.93
2023-05-02T10:37:43.054Z,69.59
2023-05-02T10:38:43.061Z,68.37
2023-05-02T10:39:43.055Z,68.98
2023-05-02T10:40:42.914Z,68.98
2023-05-02T10:41:43.024Z,68.57
2023-05-02T10:42:42.863Z,66.94
2023-05-02T10:43:42.878Z,67.65
2023-05-02T10:44:42.955Z,67.04
2023-05-02T10:45:42.929Z,68.06
2023-05-02T10:46:42.887Z,67.18
2023-05-02T10:47:43.046Z,67.38
2023-05-02T10:48:42.919Z,66.77
2023-05-02T10:49:42.823Z,67.99
2023-05-02T10:50:42.778Z,67.99
2023-05-02T10:51:42.752Z,67.68
2023-05-02T10:52:42.802Z,66.15
2023-05-02T10:53:42.829Z,67.10
2023-05-02T10:54:42.739Z,65.98
2023-05-02T10:55:42.810Z,68.02
2023-05-02T10:56:42.733Z,67.65
2023-05-02T10:57:42.815Z,67.65
2023-05-02T10:58:42.780Z,68.05
2023-05-02T10:59:42.771Z,68.16
2023-05-02T11:00:42.826Z,68.66
2023-05-02T11:01:42.797Z,67.98
2023-05-02T11:02:42.926Z,68.08
2023-05-02T11:03:42.846Z,68.49
2023-05-02T11:04:42.812Z,68.19
2023-05-02T11:05:42.723Z,68.70
2023-05-02T11:06:42.800Z,68.52
2023-05-02T11:07:42.714Z,68.73
2023-05-02T11:08:42.805Z,69.21
2023-05-02T11:09:42.719Z,69.14
2023-05-02T11:10:42.702Z,68.32
2023-05-02T11:11:43.002Z,68.22
2023-05-02T11:12:42.724Z,69.14
2023-05-02T11:13:42.548Z,68.22
2023-05-02T11:14:42.784Z,68.22
2023-05-02T11:15:42.709Z,69.58
2023-05-02T11:16:42.614Z,70.20
2023-05-02T11:17:42.629Z,70.40
2023-05-02T11:18:42.599Z,69.79
2023-05-02T11:19:42.711Z,69.58
2023-05-02T11:20:42.570Z,69.58
2023-05-02T11:21:42.555Z,69.89
2023-05-02T11:22:42.537Z,69.89
2023-05-02T11:23:42.629Z,69.24
2023-05-02T11:24:42.700Z,69.04
2023-05-02T11:25:42.661Z,67.50
2023-05-02T11:26:42.554Z,67.10
2023-05-02T11:27:42.527Z,67.81
2023-05-02T11:28:42.525Z,67.91
2023-05-02T11:29:42.580Z,66.99
2023-05-02T11:30:42.590Z,67.47
2023-05-02T11:31:42.611Z,66.55
2023-05-02T11:32:42.610Z,66.35
2023-05-02T11:33:42.381Z,65.53
2023-05-02T11:34:42.450Z,65.43
2023-05-02T11:35:42.455Z,64.99
2023-05-02T11:36:42.583Z,66.11
2023-05-02T11:37:42.464Z,65.70
2023-05-02T11:38:42.437Z,66.18
2023-05-02T11:39:42.246Z,65.06
2023-05-02T11:40:42.407Z,63.53
2023-05-02T11:41:42.412Z,64.55
2023-05-02T11:42:42.521Z,64.83
2023-05-02T11:43:42.394Z,64.31
2023-05-02T11:44:42.376Z,63.98
2023-05-02T11:45:42.398Z,63.06
2023-05-02T11:46:42.415Z,62.96
2023-05-02T11:47:42.336Z,63.23
2023-05-02T11:48:42.286Z,63.13
2023-05-02T11:49:42.282Z,62.82
2023-05-02T11:50:48.591Z,62.70
2023-05-02T11:51:42.352Z,61.68
2023-05-02T11:52:42.303Z,62.08
2023-05-02T11:53:42.378Z,61.88
2023-05-02T11:54:42.228Z,63.10
2023-05-02T11:55:42.206Z,63.00
2023-05-02T11:56:42.194Z,61.57
2023-05-02T11:57:42.296Z,60.53
2023-05-02T11:58:42.272Z,60.05
2023-05-02T11:59:42.234Z,61.57
2023-05-02T12:00:42.210Z,62.18
2023-05-02T12:01:42.119Z,61.16
2023-05-02T12:02:42.374Z,60.96
2023-05-02T12:03:42.376Z,60.17
2023-05-02T12:04:42.162Z,61.71
2023-05-02T12:05:42.179Z,61.30
2023-05-02T12:06:42.133Z,60.78
2023-05-02T12:07:42.111Z,60.78
2023-05-02T12:08:42.147Z,60.99
2023-05-02T12:09:42.177Z,62.55
2023-05-02T12:10:42.099Z,62.32
2023-05-02T12:11:42.104Z,61.60
2023-05-02T12:12:42.090Z,62.52
2023-05-02T12:13:41.929Z,61.60
2023-05-02T12:14:41.911Z,61.09
2023-05-02T12:15:42.029Z,60.69
2023-05-02T12:16:41.896Z,60.99
2023-05-02T12:17:42.143Z,60.28
2023-05-02T12:18:41.956Z,59.87
2023-05-02T12:19:41.904Z,61.19
2023-05-02T12:20:42.006Z,59.89
2023-05-02T12:21:41.995Z,60.51
2023-05-02T12:22:41.969Z,60.10
2023-05-02T12:23:41.969Z,60.41
2023-05-02T12:24:42.026Z,59.39
2023-05-02T12:25:41.941Z,59.18
2023-05-02T12:26:41.760Z,58.78
2023-05-02T12:27:41.868Z,58.87
2023-05-02T12:28:41.938Z,60.21
2023-05-02T12:29:41.916Z,60.51
2023-05-02T12:30:41.895Z,59.69
2023-05-02T12:31:41.839Z,59.80
2023-05-02T12:32:41.854Z,60.41
2023-05-02T12:33:41.832Z,61.02
2023-05-02T12:34:41.639Z,60.61
2023-05-02T12:35:41.825Z,61.02
2023-05-02T12:36:41.724Z,61.43
2023-05-02T12:37:41.646Z,61.73
2023-05-02T12:38:41.767Z,61.12
2023-05-02T12:39:41.662Z,61.94
2023-05-02T12:40:41.624Z,61.32
2023-05-02T12:41:41.853Z,62.37
2023-05-02T12:42:41.767Z,62.04
2023-05-02T12:43:41.586Z,61.35
2023-05-02T12:44:41.726Z,60.94
2023-05-02T12:45:41.587Z,61.49
2023-05-02T12:46:41.610Z,62.92
2023-05-02T12:47:41.606Z,62.95
2023-05-02T12:48:41.636Z,63.12
2023-05-02T12:49:41.523Z,62.20
2023-05-02T12:50:41.667Z,62.51
2023-05-02T12:51:41.654Z,61.90
2023-05-02T12:52:41.744Z,61.69